sensor_id;sensor_type;location;lat;lon;timestamp;temperature;humidity
13982;DHT22;7065;50.880;5.502;2023-02-28T00:00:49;-1.00;99.90
13982;DHT22;7065;50.880;5.502;2023-02-28T00:03:15;-1.00;99.90
13982;DHT22;7065;50.880;5.502;2023-02-28T00:05:41;-1.00;99.90
13982;DHT22;7065;50.880;5.502;2023-02-28T00:08:07;-1.00;99.90
13982;DHT22;7065;50.880;5.502;2023-02-28T00:10:34;-0.90;99.90
13982;DHT22;7065;50.880;5.502;2023-02-28T00:13:05;-0.90;99.90
13982;DHT22;7065;50.880;5.502;2023-02-28T00:15:32;-0.90;99.90
13982;DHT22;7065;50.880;5.502;2023-02-28T00:17:58;-0.90;99.90
13982;DHT22;7065;50.880;5.502;2023-02-28T00:20:24;-0.90;99.90
13982;DHT22;7065;50.880;5.502;2023-02-28T00:22:52;-1.00;99.90
13982;DHT22;7065;50.880;5.502;2023-02-28T00:25:20;-1.10;99.90
13982;DHT22;7065;50.880;5.502;2023-02-28T00:27:47;-1.20;99.90
13982;DHT22;7065;50.880;5.502;2023-02-28T00:30:17;-1.20;99.90
13982;DHT22;7065;50.880;5.502;2023-02-28T00:32:43;-1.20;99.90
13982;DHT22;7065;50.880;5.502;2023-02-28T00:35:10;-1.20;99.90
13982;DHT22;7065;50.880;5.502;2023-02-28T00:37:36;-1.10;99.90
13982;DHT22;7065;50.880;5.502;2023-02-28T00:40:03;-1.00;99.90
13982;DHT22;7065;50.880;5.502;2023-02-28T00:42:31;-1.00;99.90
13982;DHT22;7065;50.880;5.502;2023-02-28T00:44:58;-1.10;99.90
13982;DHT22;7065;50.880;5.502;2023-02-28T00:47:23;-1.10;99.90
13982;DHT22;7065;50.880;5.502;2023-02-28T00:49:49;-1.10;99.90
13982;DHT22;7065;50.880;5.502;2023-02-28T00:52:15;-1.00;99.90
13982;DHT22;7065;50.880;5.502;2023-02-28T00:54:40;-1.00;99.90
13982;DHT22;7065;50.880;5.502;2023-02-28T00:57:06;-1.00;99.90
13982;DHT22;7065;50.880;5.502;2023-02-28T00:59:32;-1.10;99.90
13982;DHT22;7065;50.880;5.502;2023-02-28T01:01:57;-1.10;99.90
13982;DHT22;7065;50.880;5.502;2023-02-28T01:04:23;-1.10;99.90
13982;DHT22;7065;50.880;5.502;2023-02-28T01:06:49;-1.00;99.90
13982;DHT22;7065;50.880;5.502;2023-02-28T01:09:14;-1.10;99.90
13982;DHT22;7065;50.880;5.502;2023-02-28T01:11:41;-1.10;99.90
13982;DHT22;7065;50.880;5.502;2023-02-28T01:14:15;-1.20;99.90
13982;DHT22;7065;50.880;5.502;2023-02-28T01:16:40;-1.20;99.90
13982;DHT22;7065;50.880;5.502;2023-02-28T01:19:07;-1.20;99.90
13982;DHT22;7065;50.880;5.502;2023-02-28T01:21:32;-1.20;99.90
13982;DHT22;7065;50.880;5.502;2023-02-28T01:23:58;-1.20;99.90
13982;DHT22;7065;50.880;5.502;2023-02-28T01:26:24;-1.20;99.90
13982;DHT22;7065;50.880;5.502;2023-02-28T01:28:51;-1.20;99.90
13982;DHT22;7065;50.880;5.502;2023-02-28T01:31:18;-1.20;99.90
13982;DHT22;7065;50.880;5.502;2023-02-28T01:33:45;-1.30;99.90
13982;DHT22;7065;50.880;5.502;2023-02-28T01:36:12;-1.30;99.90
13982;DHT22;7065;50.880;5.502;2023-02-28T01:38:39;-1.30;99.90
13982;DHT22;7065;50.880;5.502;2023-02-28T01:41:06;-1.30;99.90
13982;DHT22;7065;50.880;5.502;2023-02-28T01:46:11;-1.30;99.90
13982;DHT22;7065;50.880;5.502;2023-02-28T01:48:59;-1.30;99.90
13982;DHT22;7065;50.880;5.502;2023-02-28T01:54:07;-1.40;99.90
13982;DHT22;7065;50.880;5.502;2023-02-28T01:56:46;-1.40;99.90
13982;DHT22;7065;50.880;5.502;2023-02-28T01:59:24;-1.50;99.90
13982;DHT22;7065;50.880;5.502;2023-02-28T02:01:51;-1.50;99.90
13982;DHT22;7065;50.880;5.502;2023-02-28T02:04:18;-1.50;99.90
13982;DHT22;7065;50.880;5.502;2023-02-28T02:06:47;-1.60;99.90
13982;DHT22;7065;50.880;5.502;2023-02-28T02:09:13;-1.50;99.90
13982;DHT22;7065;50.880;5.502;2023-02-28T02:11:41;-1.50;99.90
13982;DHT22;7065;50.880;5.502;2023-02-28T02:14:11;-1.50;99.90
13982;DHT22;7065;50.880;5.502;2023-02-28T02:22:43;-1.60;99.90
13982;DHT22;7065;50.880;5.502;2023-02-28T02:30:44;-1.70;99.90
13982;DHT22;7065;50.880;5.502;2023-02-28T02:39:06;-1.90;99.90
13982;DHT22;7065;50.880;5.502;2023-02-28T02:41:40;-2.00;99.90
13982;DHT22;7065;50.880;5.502;2023-02-28T02:47:09;-2.10;99.90
13982;DHT22;7065;50.880;5.502;2023-02-28T02:49:36;-2.20;99.90
13982;DHT22;7065;50.880;5.502;2023-02-28T02:52:06;-2.20;99.90
13982;DHT22;7065;50.880;5.502;2023-02-28T02:54:38;-2.30;99.90
13982;DHT22;7065;50.880;5.502;2023-02-28T02:58:03;-2.30;99.90
13982;DHT22;7065;50.880;5.502;2023-02-28T03:00:05;-2.40;99.90
13982;DHT22;7065;50.880;5.502;2023-02-28T03:02:35;-2.40;99.90
13982;DHT22;7065;50.880;5.502;2023-02-28T03:05:12;-2.40;99.90
13982;DHT22;7065;50.880;5.502;2023-02-28T03:07:40;-2.50;99.90
13982;DHT22;7065;50.880;5.502;2023-02-28T03:15:47;-2.50;99.90
13982;DHT22;7065;50.880;5.502;2023-02-28T03:24:25;-2.60;99.90
13982;DHT22;7065;50.880;5.502;2023-02-28T03:26:58;-2.60;99.90
13982;DHT22;7065;50.880;5.502;2023-02-28T03:29:48;-2.60;99.90
13982;DHT22;7065;50.880;5.502;2023-02-28T03:32:38;-2.70;99.90
13982;DHT22;7065;50.880;5.502;2023-02-28T03:35:08;-2.70;99.90
13982;DHT22;7065;50.880;5.502;2023-02-28T03:37:38;-2.70;99.90
13982;DHT22;7065;50.880;5.502;2023-02-28T03:40:11;-2.70;99.90
13982;DHT22;7065;50.880;5.502;2023-02-28T03:42:41;-2.70;99.90
13982;DHT22;7065;50.880;5.502;2023-02-28T03:45:15;-2.80;99.90
13982;DHT22;7065;50.880;5.502;2023-02-28T03:47:47;-2.80;99.90
13982;DHT22;7065;50.880;5.502;2023-02-28T03:50:22;-2.80;99.90
13982;DHT22;7065;50.880;5.502;2023-02-28T03:53:29;-2.80;99.90
13982;DHT22;7065;50.880;5.502;2023-02-28T03:56:22;-2.90;99.90
13982;DHT22;7065;50.880;5.502;2023-02-28T03:59:07;-2.80;99.90
13982;DHT22;7065;50.880;5.502;2023-02-28T04:01:39;-2.80;99.90
13982;DHT22;7065;50.880;5.502;2023-02-28T04:04:10;-2.70;99.90
13982;DHT22;7065;50.880;5.502;2023-02-28T04:06:37;-2.60;99.90
13982;DHT22;7065;50.880;5.502;2023-02-28T04:09:04;-2.60;99.90
13982;DHT22;7065;50.880;5.502;2023-02-28T04:11:36;-2.50;99.90
13982;DHT22;7065;50.880;5.502;2023-02-28T04:14:04;-2.50;99.90
13982;DHT22;7065;50.880;5.502;2023-02-28T04:16:30;-2.40;99.90
13982;DHT22;7065;50.880;5.502;2023-02-28T04:18:56;-2.30;99.90
13982;DHT22;7065;50.880;5.502;2023-02-28T04:21:32;-2.30;99.90
13982;DHT22;7065;50.880;5.502;2023-02-28T04:23:58;-2.20;99.90
13982;DHT22;7065;50.880;5.502;2023-02-28T04:26:31;-2.20;99.90
13982;DHT22;7065;50.880;5.502;2023-02-28T04:28:58;-2.10;99.90
13982;DHT22;7065;50.880;5.502;2023-02-28T04:31:23;-2.10;99.90
13982;DHT22;7065;50.880;5.502;2023-02-28T04:33:49;-2.10;99.90
13982;DHT22;7065;50.880;5.502;2023-02-28T04:36:15;-2.10;99.90
13982;DHT22;7065;50.880;5.502;2023-02-28T04:38:44;-2.10;99.90
13982;DHT22;7065;50.880;5.502;2023-02-28T04:41:10;-2.10;99.90
13982;DHT22;7065;50.880;5.502;2023-02-28T04:43:36;-2.10;99.90
13982;DHT22;7065;50.880;5.502;2023-02-28T04:46:04;-2.10;99.90
13982;DHT22;7065;50.880;5.502;2023-02-28T04:48:33;-2.10;99.90
13982;DHT22;7065;50.880;5.502;2023-02-28T04:51:03;-2.00;99.90
13982;DHT22;7065;50.880;5.502;2023-02-28T04:53:29;-2.00;99.90
13982;DHT22;7065;50.880;5.502;2023-02-28T04:55:56;-2.00;99.90
13982;DHT22;7065;50.880;5.502;2023-02-28T04:58:22;-1.90;99.90
13982;DHT22;7065;50.880;5.502;2023-02-28T05:00:52;-1.90;99.90
13982;DHT22;7065;50.880;5.502;2023-02-28T05:03:18;-2.00;99.90
13982;DHT22;7065;50.880;5.502;2023-02-28T05:05:44;-2.00;99.90
13982;DHT22;7065;50.880;5.502;2023-02-28T05:08:10;-2.10;99.90
13982;DHT22;7065;50.880;5.502;2023-02-28T05:10:37;-2.20;99.90
13982;DHT22;7065;50.880;5.502;2023-02-28T05:13:02;-2.30;99.90
13982;DHT22;7065;50.880;5.502;2023-02-28T05:15:28;-2.40;99.90
13982;DHT22;7065;50.880;5.502;2023-02-28T05:17:54;-2.40;99.90
13982;DHT22;7065;50.880;5.502;2023-02-28T05:20:19;-2.40;99.90
13982;DHT22;7065;50.880;5.502;2023-02-28T05:22:46;-2.40;99.90
13982;DHT22;7065;50.880;5.502;2023-02-28T05:25:16;-2.40;99.90
13982;DHT22;7065;50.880;5.502;2023-02-28T05:27:42;-2.40;99.90
13982;DHT22;7065;50.880;5.502;2023-02-28T05:30:08;-2.40;99.90
13982;DHT22;7065;50.880;5.502;2023-02-28T05:32:37;-2.50;99.90
13982;DHT22;7065;50.880;5.502;2023-02-28T05:35:04;-2.50;99.90
13982;DHT22;7065;50.880;5.502;2023-02-28T05:37:30;-2.60;99.90
13982;DHT22;7065;50.880;5.502;2023-02-28T05:39:55;-2.60;99.90
13982;DHT22;7065;50.880;5.502;2023-02-28T05:42:21;-2.60;99.90
13982;DHT22;7065;50.880;5.502;2023-02-28T05:44:47;-2.70;99.90
13982;DHT22;7065;50.880;5.502;2023-02-28T05:47:12;-2.80;99.90
13982;DHT22;7065;50.880;5.502;2023-02-28T05:49:41;-2.80;99.90
13982;DHT22;7065;50.880;5.502;2023-02-28T05:52:07;-2.90;99.90
13982;DHT22;7065;50.880;5.502;2023-02-28T05:54:33;-3.00;99.90
13982;DHT22;7065;50.880;5.502;2023-02-28T05:56:59;-3.00;99.90
13982;DHT22;7065;50.880;5.502;2023-02-28T05:59:24;-2.90;99.90
13982;DHT22;7065;50.880;5.502;2023-02-28T06:01:50;-3.00;99.90
13982;DHT22;7065;50.880;5.502;2023-02-28T06:04:19;-3.00;99.90
13982;DHT22;7065;50.880;5.502;2023-02-28T06:06:46;-2.90;99.90
13982;DHT22;7065;50.880;5.502;2023-02-28T06:09:12;-2.90;99.90
13982;DHT22;7065;50.880;5.502;2023-02-28T06:11:37;-2.90;99.90
13982;DHT22;7065;50.880;5.502;2023-02-28T06:14:04;-2.90;99.90
13982;DHT22;7065;50.880;5.502;2023-02-28T06:16:32;-3.00;99.90
13982;DHT22;7065;50.880;5.502;2023-02-28T06:19:00;-3.00;99.90
13982;DHT22;7065;50.880;5.502;2023-02-28T06:21:26;-3.00;99.90
13982;DHT22;7065;50.880;5.502;2023-02-28T06:23:56;-3.00;99.90
13982;DHT22;7065;50.880;5.502;2023-02-28T06:26:22;-3.00;99.90
13982;DHT22;7065;50.880;5.502;2023-02-28T06:28:48;-3.10;99.90
13982;DHT22;7065;50.880;5.502;2023-02-28T06:31:16;-3.10;99.90
13982;DHT22;7065;50.880;5.502;2023-02-28T06:33:42;-3.20;99.90
13982;DHT22;7065;50.880;5.502;2023-02-28T06:36:09;-3.20;99.90
13982;DHT22;7065;50.880;5.502;2023-02-28T06:38:36;-3.20;99.90
13982;DHT22;7065;50.880;5.502;2023-02-28T06:41:02;-3.10;99.90
13982;DHT22;7065;50.880;5.502;2023-02-28T06:43:30;-3.10;99.90
13982;DHT22;7065;50.880;5.502;2023-02-28T06:46:02;-3.00;99.90
13982;DHT22;7065;50.880;5.502;2023-02-28T06:48:28;-2.90;99.90
13982;DHT22;7065;50.880;5.502;2023-02-28T06:51:09;-2.90;99.90
13982;DHT22;7065;50.880;5.502;2023-02-28T06:53:35;-2.80;99.90
13982;DHT22;7065;50.880;5.502;2023-02-28T06:56:05;-2.80;99.90
13982;DHT22;7065;50.880;5.502;2023-02-28T06:58:32;-2.80;99.90
13982;DHT22;7065;50.880;5.502;2023-02-28T07:00:57;-2.70;99.90
13982;DHT22;7065;50.880;5.502;2023-02-28T07:03:23;-2.70;99.90
13982;DHT22;7065;50.880;5.502;2023-02-28T07:05:49;-2.70;99.90
13982;DHT22;7065;50.880;5.502;2023-02-28T07:08:15;-2.70;99.90
13982;DHT22;7065;50.880;5.502;2023-02-28T07:10:41;-2.70;99.90
13982;DHT22;7065;50.880;5.502;2023-02-28T07:13:08;-2.70;99.90
13982;DHT22;7065;50.880;5.502;2023-02-28T07:15:35;-2.60;99.90
13982;DHT22;7065;50.880;5.502;2023-02-28T07:18:00;-2.50;99.90
13982;DHT22;7065;50.880;5.502;2023-02-28T07:20:26;-2.50;99.90
13982;DHT22;7065;50.880;5.502;2023-02-28T07:22:52;-2.40;99.90
13982;DHT22;7065;50.880;5.502;2023-02-28T07:25:26;-2.40;99.90
13982;DHT22;7065;50.880;5.502;2023-02-28T07:27:53;-2.30;99.90
13982;DHT22;7065;50.880;5.502;2023-02-28T07:30:19;-2.30;99.90
13982;DHT22;7065;50.880;5.502;2023-02-28T07:32:45;-2.30;99.90
13982;DHT22;7065;50.880;5.502;2023-02-28T07:35:11;-2.30;99.90
13982;DHT22;7065;50.880;5.502;2023-02-28T07:37:37;-2.20;99.90
13982;DHT22;7065;50.880;5.502;2023-02-28T07:40:05;-2.20;99.90
13982;DHT22;7065;50.880;5.502;2023-02-28T07:42:36;-2.10;99.90
13982;DHT22;7065;50.880;5.502;2023-02-28T07:45:02;-2.00;99.90
13982;DHT22;7065;50.880;5.502;2023-02-28T07:47:31;-1.90;99.90
13982;DHT22;7065;50.880;5.502;2023-02-28T07:49:57;-1.90;99.90
13982;DHT22;7065;50.880;5.502;2023-02-28T07:52:23;-1.80;99.90
13982;DHT22;7065;50.880;5.502;2023-02-28T07:54:50;-1.80;99.90
13982;DHT22;7065;50.880;5.502;2023-02-28T07:57:16;-1.70;99.90
13982;DHT22;7065;50.880;5.502;2023-02-28T07:59:41;-1.70;99.90
13982;DHT22;7065;50.880;5.502;2023-02-28T08:02:17;-1.60;99.90
13982;DHT22;7065;50.880;5.502;2023-02-28T08:04:44;-1.50;99.90
13982;DHT22;7065;50.880;5.502;2023-02-28T08:07:12;-1.40;99.90
13982;DHT22;7065;50.880;5.502;2023-02-28T08:09:39;-1.30;99.90
13982;DHT22;7065;50.880;5.502;2023-02-28T08:12:06;-1.10;99.90
13982;DHT22;7065;50.880;5.502;2023-02-28T08:14:31;-1.00;99.90
13982;DHT22;7065;50.880;5.502;2023-02-28T08:16:57;-0.90;99.90
13982;DHT22;7065;50.880;5.502;2023-02-28T08:19:23;-0.80;99.90
13982;DHT22;7065;50.880;5.502;2023-02-28T08:21:49;-0.60;99.90
13982;DHT22;7065;50.880;5.502;2023-02-28T08:24:14;-0.50;99.90
13982;DHT22;7065;50.880;5.502;2023-02-28T08:26:40;-0.50;99.90
13982;DHT22;7065;50.880;5.502;2023-02-28T08:29:06;-0.50;99.90
13982;DHT22;7065;50.880;5.502;2023-02-28T08:31:31;-0.40;99.90
13982;DHT22;7065;50.880;5.502;2023-02-28T08:33:57;-0.30;99.90
13982;DHT22;7065;50.880;5.502;2023-02-28T08:36:25;-0.30;99.90
13982;DHT22;7065;50.880;5.502;2023-02-28T08:38:51;-0.20;99.90
13982;DHT22;7065;50.880;5.502;2023-02-28T08:41:17;-0.20;99.90
13982;DHT22;7065;50.880;5.502;2023-02-28T08:43:43;-0.10;99.90
13982;DHT22;7065;50.880;5.502;2023-02-28T08:46:12;0.00;99.90
13982;DHT22;7065;50.880;5.502;2023-02-28T08:48:39;0.00;99.90
13982;DHT22;7065;50.880;5.502;2023-02-28T08:51:10;0.10;99.90
13982;DHT22;7065;50.880;5.502;2023-02-28T08:53:37;0.20;99.90
13982;DHT22;7065;50.880;5.502;2023-02-28T08:56:14;0.30;99.90
13982;DHT22;7065;50.880;5.502;2023-02-28T08:58:42;0.30;99.90
13982;DHT22;7065;50.880;5.502;2023-02-28T09:01:12;0.30;99.90
13982;DHT22;7065;50.880;5.502;2023-02-28T09:03:39;0.40;99.90
13982;DHT22;7065;50.880;5.502;2023-02-28T09:06:06;0.40;99.90
13982;DHT22;7065;50.880;5.502;2023-02-28T09:08:32;0.40;99.90
13982;DHT22;7065;50.880;5.502;2023-02-28T09:10:58;0.60;99.90
13982;DHT22;7065;50.880;5.502;2023-02-28T09:13:27;0.70;99.90
13982;DHT22;7065;50.880;5.502;2023-02-28T09:15:55;0.80;99.90
13982;DHT22;7065;50.880;5.502;2023-02-28T09:18:22;0.90;99.90
13982;DHT22;7065;50.880;5.502;2023-02-28T09:20:48;0.90;99.90
13982;DHT22;7065;50.880;5.502;2023-02-28T09:23:13;1.00;99.90
13982;DHT22;7065;50.880;5.502;2023-02-28T09:25:46;1.00;99.90
13982;DHT22;7065;50.880;5.502;2023-02-28T09:28:12;1.10;99.90
13982;DHT22;7065;50.880;5.502;2023-02-28T09:30:39;1.10;99.90
13982;DHT22;7065;50.880;5.502;2023-02-28T09:33:05;1.10;99.90
13982;DHT22;7065;50.880;5.502;2023-02-28T09:35:30;1.20;99.90
13982;DHT22;7065;50.880;5.502;2023-02-28T09:37:56;1.40;99.90
13982;DHT22;7065;50.880;5.502;2023-02-28T09:40:24;1.40;99.90
13982;DHT22;7065;50.880;5.502;2023-02-28T09:42:53;1.50;99.90
13982;DHT22;7065;50.880;5.502;2023-02-28T09:45:33;1.60;99.90
13982;DHT22;7065;50.880;5.502;2023-02-28T09:48:16;1.60;99.90
13982;DHT22;7065;50.880;5.502;2023-02-28T09:50:49;1.70;99.90
13982;DHT22;7065;50.880;5.502;2023-02-28T09:53:26;1.70;99.90
13982;DHT22;7065;50.880;5.502;2023-02-28T09:55:55;1.70;99.90
13982;DHT22;7065;50.880;5.502;2023-02-28T09:58:41;1.80;99.90
13982;DHT22;7065;50.880;5.502;2023-02-28T10:01:18;1.80;99.90
13982;DHT22;7065;50.880;5.502;2023-02-28T10:03:56;1.80;99.90
13982;DHT22;7065;50.880;5.502;2023-02-28T10:06:28;1.90;99.90
13982;DHT22;7065;50.880;5.502;2023-02-28T10:09:04;2.00;99.90
13982;DHT22;7065;50.880;5.502;2023-02-28T10:11:36;2.00;99.90
13982;DHT22;7065;50.880;5.502;2023-02-28T10:14:11;2.10;99.90
13982;DHT22;7065;50.880;5.502;2023-02-28T10:16:48;2.20;99.90
13982;DHT22;7065;50.880;5.502;2023-02-28T10:24:50;2.30;99.90
13982;DHT22;7065;50.880;5.502;2023-02-28T10:27:21;2.40;99.90
13982;DHT22;7065;50.880;5.502;2023-02-28T10:29:55;2.40;99.90
13982;DHT22;7065;50.880;5.502;2023-02-28T10:32:33;2.40;99.90
13982;DHT22;7065;50.880;5.502;2023-02-28T10:38:17;2.50;99.90
13982;DHT22;7065;50.880;5.502;2023-02-28T10:40:43;2.50;99.90
13982;DHT22;7065;50.880;5.502;2023-02-28T10:45:39;2.60;99.90
13982;DHT22;7065;50.880;5.502;2023-02-28T11:01:21;3.10;99.90
13982;DHT22;7065;50.880;5.502;2023-02-28T11:03:48;3.20;99.90
13982;DHT22;7065;50.880;5.502;2023-02-28T11:06:25;3.10;99.90
13982;DHT22;7065;50.880;5.502;2023-02-28T11:08:56;3.00;99.90
13982;DHT22;7065;50.880;5.502;2023-02-28T11:11:26;3.10;99.90
13982;DHT22;7065;50.880;5.502;2023-02-28T11:14:25;3.10;99.90
13982;DHT22;7065;50.880;5.502;2023-02-28T11:16:52;3.20;99.90
13982;DHT22;7065;50.880;5.502;2023-02-28T11:19:38;3.30;99.90
13982;DHT22;7065;50.880;5.502;2023-02-28T11:22:05;3.30;99.90
13982;DHT22;7065;50.880;5.502;2023-02-28T11:27:01;3.40;99.90
13982;DHT22;7065;50.880;5.502;2023-02-28T11:29:29;3.50;99.90
13982;DHT22;7065;50.880;5.502;2023-02-28T11:34:35;3.50;99.90
13982;DHT22;7065;50.880;5.502;2023-02-28T11:37:04;3.50;99.90
13982;DHT22;7065;50.880;5.502;2023-02-28T11:39:32;3.40;99.90
13982;DHT22;7065;50.880;5.502;2023-02-28T11:53:22;3.60;99.90
13982;DHT22;7065;50.880;5.502;2023-02-28T12:01:33;4.00;99.90
13982;DHT22;7065;50.880;5.502;2023-02-28T12:04:28;4.00;99.90
13982;DHT22;7065;50.880;5.502;2023-02-28T12:07:13;4.00;99.90
13982;DHT22;7065;50.880;5.502;2023-02-28T12:16:07;4.10;99.90
13982;DHT22;7065;50.880;5.502;2023-02-28T12:21:40;4.20;99.90
13982;DHT22;7065;50.880;5.502;2023-02-28T12:26:56;4.20;99.90
13982;DHT22;7065;50.880;5.502;2023-02-28T12:29:28;4.20;99.90
13982;DHT22;7065;50.880;5.502;2023-02-28T12:34:35;4.30;99.90
13982;DHT22;7065;50.880;5.502;2023-02-28T12:37:07;4.50;99.90
13982;DHT22;7065;50.880;5.502;2023-02-28T12:39:40;4.50;99.90
13982;DHT22;7065;50.880;5.502;2023-02-28T12:42:19;4.50;99.90
13982;DHT22;7065;50.880;5.502;2023-02-28T12:45:36;4.60;99.90
13982;DHT22;7065;50.880;5.502;2023-02-28T12:47:42;4.60;99.90
13982;DHT22;7065;50.880;5.502;2023-02-28T12:50:11;4.60;99.90
13982;DHT22;7065;50.880;5.502;2023-02-28T12:55:31;4.70;99.90
13982;DHT22;7065;50.880;5.502;2023-02-28T13:01:52;4.70;99.90
13982;DHT22;7065;50.880;5.502;2023-02-28T13:09:17;4.70;99.90
13982;DHT22;7065;50.880;5.502;2023-02-28T13:11:48;4.70;99.90
13982;DHT22;7065;50.880;5.502;2023-02-28T13:14:26;4.70;99.90
13982;DHT22;7065;50.880;5.502;2023-02-28T13:19:25;4.90;99.90
13982;DHT22;7065;50.880;5.502;2023-02-28T13:21:51;5.00;99.90
13982;DHT22;7065;50.880;5.502;2023-02-28T13:24:41;4.90;99.90
13982;DHT22;7065;50.880;5.502;2023-02-28T13:29:38;4.90;99.90
13982;DHT22;7065;50.880;5.502;2023-02-28T13:34:41;4.90;99.90
13982;DHT22;7065;50.880;5.502;2023-02-28T13:39:57;4.90;99.90
13982;DHT22;7065;50.880;5.502;2023-02-28T13:42:48;5.00;99.90
13982;DHT22;7065;50.880;5.502;2023-02-28T13:48:29;5.10;99.90
13982;DHT22;7065;50.880;5.502;2023-02-28T13:50:55;5.20;99.90
13982;DHT22;7065;50.880;5.502;2023-02-28T13:56:26;5.30;99.90
13982;DHT22;7065;50.880;5.502;2023-02-28T13:58:59;5.20;99.90
13982;DHT22;7065;50.880;5.502;2023-02-28T14:07:24;5.20;99.90
13982;DHT22;7065;50.880;5.502;2023-02-28T14:10:01;5.20;99.90
13982;DHT22;7065;50.880;5.502;2023-02-28T14:12:53;5.20;99.90
13982;DHT22;7065;50.880;5.502;2023-02-28T14:18:35;5.20;99.90
13982;DHT22;7065;50.880;5.502;2023-02-28T14:32:22;5.40;99.90
13982;DHT22;7065;50.880;5.502;2023-02-28T14:34:57;5.20;99.90
13982;DHT22;7065;50.880;5.502;2023-02-28T14:37:29;5.20;99.90
13982;DHT22;7065;50.880;5.502;2023-02-28T14:39:57;5.20;99.90
13982;DHT22;7065;50.880;5.502;2023-02-28T14:42:33;5.10;99.90
13982;DHT22;7065;50.880;5.502;2023-02-28T14:45:00;5.10;99.90
13982;DHT22;7065;50.880;5.502;2023-02-28T14:47:35;5.20;99.90
13982;DHT22;7065;50.880;5.502;2023-02-28T14:50:03;5.20;99.90
13982;DHT22;7065;50.880;5.502;2023-02-28T14:52:31;5.30;99.90
13982;DHT22;7065;50.880;5.502;2023-02-28T14:55:14;5.20;99.90
13982;DHT22;7065;50.880;5.502;2023-02-28T14:57:49;5.20;99.90
13982;DHT22;7065;50.880;5.502;2023-02-28T15:00:28;5.20;99.90
13982;DHT22;7065;50.880;5.502;2023-02-28T15:02:56;5.30;99.90
13982;DHT22;7065;50.880;5.502;2023-02-28T15:08:09;5.30;99.90
13982;DHT22;7065;50.880;5.502;2023-02-28T15:10:36;5.30;99.90
13982;DHT22;7065;50.880;5.502;2023-02-28T15:13:05;5.30;99.90
13982;DHT22;7065;50.880;5.502;2023-02-28T15:20:51;5.20;99.90
13982;DHT22;7065;50.880;5.502;2023-02-28T15:23:18;5.30;99.90
13982;DHT22;7065;50.880;5.502;2023-02-28T15:25:45;5.20;99.90
13982;DHT22;7065;50.880;5.502;2023-02-28T15:28:15;5.10;99.90
13982;DHT22;7065;50.880;5.502;2023-02-28T15:30:51;5.00;99.90
13982;DHT22;7065;50.880;5.502;2023-02-28T15:33:20;5.00;99.90
13982;DHT22;7065;50.880;5.502;2023-02-28T15:35:47;5.00;99.90
13982;DHT22;7065;50.880;5.502;2023-02-28T15:38:27;5.00;99.90
13982;DHT22;7065;50.880;5.502;2023-02-28T15:40:58;5.10;99.90
13982;DHT22;7065;50.880;5.502;2023-02-28T15:43:30;5.00;99.90
13982;DHT22;7065;50.880;5.502;2023-02-28T15:48:28;4.90;99.90
13982;DHT22;7065;50.880;5.502;2023-02-28T15:53:26;4.70;99.90
13982;DHT22;7065;50.880;5.502;2023-02-28T15:56:02;4.80;99.90
13982;DHT22;7065;50.880;5.502;2023-02-28T15:58:29;4.80;99.90
13982;DHT22;7065;50.880;5.502;2023-02-28T16:01:20;4.80;99.90
13982;DHT22;7065;50.880;5.502;2023-02-28T16:03:52;5.00;99.90
13982;DHT22;7065;50.880;5.502;2023-02-28T16:09:09;4.90;99.90
13982;DHT22;7065;50.880;5.502;2023-02-28T16:11:39;4.90;99.90
13982;DHT22;7065;50.880;5.502;2023-02-28T16:14:08;4.90;99.90
13982;DHT22;7065;50.880;5.502;2023-02-28T16:16:42;4.80;99.90
13982;DHT22;7065;50.880;5.502;2023-02-28T16:19:08;4.60;99.90
13982;DHT22;7065;50.880;5.502;2023-02-28T16:21:34;4.60;99.90
13982;DHT22;7065;50.880;5.502;2023-02-28T16:23:59;4.60;99.90
13982;DHT22;7065;50.880;5.502;2023-02-28T16:26:25;4.50;99.90
13982;DHT22;7065;50.880;5.502;2023-02-28T16:28:53;4.40;99.90
13982;DHT22;7065;50.880;5.502;2023-02-28T16:31:19;4.30;99.90
13982;DHT22;7065;50.880;5.502;2023-02-28T16:33:45;4.30;99.90
13982;DHT22;7065;50.880;5.502;2023-02-28T16:36:18;4.30;99.90
13982;DHT22;7065;50.880;5.502;2023-02-28T16:38:44;4.20;99.90
13982;DHT22;7065;50.880;5.502;2023-02-28T16:41:14;4.20;99.90
13982;DHT22;7065;50.880;5.502;2023-02-28T16:43:47;4.10;99.90
13982;DHT22;7065;50.880;5.502;2023-02-28T16:46:14;4.10;99.90
13982;DHT22;7065;50.880;5.502;2023-02-28T16:48:42;3.90;99.90
13982;DHT22;7065;50.880;5.502;2023-02-28T16:51:15;3.90;99.90
13982;DHT22;7065;50.880;5.502;2023-02-28T16:53:41;3.80;99.90
13982;DHT22;7065;50.880;5.502;2023-02-28T16:56:20;3.80;99.90
13982;DHT22;7065;50.880;5.502;2023-02-28T16:58:48;3.70;99.90
13982;DHT22;7065;50.880;5.502;2023-02-28T17:01:14;3.60;99.90
13982;DHT22;7065;50.880;5.502;2023-02-28T17:03:40;3.60;99.90
13982;DHT22;7065;50.880;5.502;2023-02-28T17:06:12;3.50;99.90
13982;DHT22;7065;50.880;5.502;2023-02-28T17:08:41;3.50;99.90
13982;DHT22;7065;50.880;5.502;2023-02-28T17:11:08;3.40;99.90
13982;DHT22;7065;50.880;5.502;2023-02-28T17:13:34;3.40;99.90
13982;DHT22;7065;50.880;5.502;2023-02-28T17:16:00;3.30;99.90
13982;DHT22;7065;50.880;5.502;2023-02-28T17:18:26;3.30;99.90
13982;DHT22;7065;50.880;5.502;2023-02-28T17:20:54;3.20;99.90
13982;DHT22;7065;50.880;5.502;2023-02-28T17:23:19;3.10;99.90
13982;DHT22;7065;50.880;5.502;2023-02-28T17:25:45;3.00;99.90
13982;DHT22;7065;50.880;5.502;2023-02-28T17:28:19;2.90;99.90
13982;DHT22;7065;50.880;5.502;2023-02-28T17:30:45;2.80;99.90
13982;DHT22;7065;50.880;5.502;2023-02-28T17:33:13;2.70;99.90
13982;DHT22;7065;50.880;5.502;2023-02-28T17:35:38;2.70;99.90
13982;DHT22;7065;50.880;5.502;2023-02-28T17:38:04;2.60;99.90
13982;DHT22;7065;50.880;5.502;2023-02-28T17:40:30;2.60;99.90
13982;DHT22;7065;50.880;5.502;2023-02-28T17:42:56;2.50;99.90
13982;DHT22;7065;50.880;5.502;2023-02-28T17:45:22;2.40;99.90
13982;DHT22;7065;50.880;5.502;2023-02-28T17:47:49;2.30;99.90
13982;DHT22;7065;50.880;5.502;2023-02-28T17:50:18;2.20;99.90
13982;DHT22;7065;50.880;5.502;2023-02-28T17:52:44;2.20;99.90
13982;DHT22;7065;50.880;5.502;2023-02-28T17:55:10;2.10;99.90
13982;DHT22;7065;50.880;5.502;2023-02-28T17:57:37;2.00;99.90
13982;DHT22;7065;50.880;5.502;2023-02-28T18:00:03;1.90;99.90
13982;DHT22;7065;50.880;5.502;2023-02-28T18:02:32;1.90;99.90
13982;DHT22;7065;50.880;5.502;2023-02-28T18:04:59;1.80;99.90
13982;DHT22;7065;50.880;5.502;2023-02-28T18:07:25;1.80;99.90
13982;DHT22;7065;50.880;5.502;2023-02-28T18:09:50;1.80;99.90
13982;DHT22;7065;50.880;5.502;2023-02-28T18:12:16;1.80;99.90
13982;DHT22;7065;50.880;5.502;2023-02-28T18:14:42;1.80;99.90
13982;DHT22;7065;50.880;5.502;2023-02-28T18:17:11;1.70;99.90
13982;DHT22;7065;50.880;5.502;2023-02-28T18:19:38;1.70;99.90
13982;DHT22;7065;50.880;5.502;2023-02-28T18:22:03;1.70;99.90
13982;DHT22;7065;50.880;5.502;2023-02-28T18:24:31;1.60;99.90
13982;DHT22;7065;50.880;5.502;2023-02-28T18:26:57;1.60;99.90
13982;DHT22;7065;50.880;5.502;2023-02-28T18:29:25;1.70;99.90
13982;DHT22;7065;50.880;5.502;2023-02-28T18:31:52;1.70;99.90
13982;DHT22;7065;50.880;5.502;2023-02-28T18:34:18;1.60;99.90
13982;DHT22;7065;50.880;5.502;2023-02-28T18:36:45;1.50;99.90
13982;DHT22;7065;50.880;5.502;2023-02-28T18:39:13;1.40;99.90
13982;DHT22;7065;50.880;5.502;2023-02-28T18:41:39;1.40;99.90
13982;DHT22;7065;50.880;5.502;2023-02-28T18:44:06;1.40;99.90
13982;DHT22;7065;50.880;5.502;2023-02-28T18:46:32;1.40;99.90
13982;DHT22;7065;50.880;5.502;2023-02-28T18:48:58;1.40;99.90
13982;DHT22;7065;50.880;5.502;2023-02-28T18:51:25;1.30;99.90